Time;durP1;ratioP1;P1;durP2;ratioP2;P2;SDS_P1;SDS_P2;PMS_P1;PMS_P2;Temp;Humidity;BMP_temperature;BMP_pressure;BME280_temperature;BME280_humidity;BME280_pressure;Samples;Min_cycle;Max_cycle;Signal;HPM_P1;HPM_P2
2023/01/08 00:02:06;;;;;;;9.47;7.73;;;11.20;55.50;;;;;;5022489;28;20173;-59
2023/01/08 00:04:31;;;;;;;10.67;9.07;;;11.20;55.90;;;;;;5029862;28;20876;-59
2023/01/08 00:06:57;;;;;;;8.10;7.20;;;11.20;55.70;;;;;;5024240;28;20300;-59
2023/01/08 00:09:23;;;;;;;9.40;7.50;;;11.20;55.60;;;;;;5024908;28;20225;-59
2023/01/08 00:11:48;;;;;;;8.53;7.57;;;11.30;55.20;;;;;;5025052;28;20197;-58
2023/01/08 00:14:14;;;;;;;8.50;7.50;;;11.10;55.70;;;;;;5027094;28;20582;-59
2023/01/08 00:16:39;;;;;;;11.83;6.57;;;11.30;55.70;;;;;;5026544;28;20190;-59
2023/01/08 00:19:05;;;;;;;9.50;7.90;;;11.30;55.40;;;;;;5021773;28;20194;-59
2023/01/08 00:21:31;;;;;;;8.73;6.40;;;11.40;55.30;;;;;;5021521;28;20247;-59
2023/01/08 00:23:56;;;;;;;9.17;7.50;;;11.30;55.40;;;;;;5023418;28;20204;-59
2023/01/08 00:26:22;;;;;;;7.70;6.50;;;11.20;55.50;;;;;;5027160;28;20260;-59
2023/01/08 00:28:48;;;;;;;10.53;7.63;;;11.20;55.50;;;;;;5025430;28;20628;-59
2023/01/08 00:31:13;;;;;;;8.97;8.07;;;11.10;56.10;;;;;;5023578;28;20225;-59
2023/01/08 00:33:40;;;;;;;7.57;6.87;;;10.60;56.70;;;;;;5032134;28;20181;-59
2023/01/08 00:36:07;;;;;;;9.20;8.03;;;10.60;56.60;;;;;;5027528;28;20226;-58
2023/01/08 00:38:33;;;;;;;9.30;7.80;;;10.60;56.80;;;;;;5023306;28;20447;-59
2023/01/08 00:40:58;;;;;;;9.87;8.87;;;10.70;56.80;;;;;;5025290;28;20432;-59
2023/01/08 00:43:24;;;;;;;8.17;7.40;;;10.70;56.60;;;;;;5024448;28;20546;-59
2023/01/08 00:45:52;;;;;;;9.67;8.80;;;10.50;56.80;;;;;;5020387;28;20185;-58
2023/01/08 00:48:21;;;;;;;12.40;8.60;;;10.60;57.20;;;;;;5023277;28;20221;-59
2023/01/08 00:50:47;;;;;;;9.87;8.63;;;10.70;57.00;;;;;;5026340;28;20494;-59
2023/01/08 00:53:12;;;;;;;8.43;7.30;;;10.70;56.90;;;;;;5024818;28;20440;-59
2023/01/08 00:55:38;;;;;;;8.63;6.67;;;10.50;57.20;;;;;;5026976;28;20440;-59
2023/01/08 00:58:04;;;;;;;8.23;6.20;;;10.40;57.40;;;;;;5024827;28;20227;-59
2023/01/08 01:00:29;;;;;;;8.07;7.20;;;10.50;57.50;;;;;;5018754;28;20567;-59
2023/01/08 01:02:55;;;;;;;8.23;6.23;;;10.60;57.30;;;;;;5025213;28;20221;-59
2023/01/08 01:05:20;;;;;;;9.23;7.30;;;10.50;57.30;;;;;;5023016;28;20192;-59
2023/01/08 01:07:46;;;;;;;7.53;6.77;;;10.40;57.40;;;;;;5025854;28;20710;-59
2023/01/08 01:10:13;;;;;;;7.30;6.53;;;10.40;57.60;;;;;;5021308;28;20240;-59
2023/01/08 01:12:40;;;;;;;9.10;6.73;;;10.30;57.80;;;;;;5026518;28;20247;-59
2023/01/08 01:15:07;;;;;;;8.53;7.30;;;10.40;57.80;;;;;;5024323;28;20444;-59
2023/01/08 01:17:33;;;;;;;11.03;8.33;;;10.40;57.50;;;;;;5025213;28;20445;-59
2023/01/08 01:19:59;;;;;;;10.87;8.10;;;10.20;57.70;;;;;;5021374;28;20928;-59
2023/01/08 01:22:24;;;;;;;8.53;7.03;;;10.10;58.10;;;;;;5025007;28;20486;-59
2023/01/08 01:24:50;;;;;;;8.37;7.53;;;10.20;57.90;;;;;;5024578;28;20205;-59
2023/01/08 01:27:15;;;;;;;10.47;7.47;;;10.30;57.70;;;;;;5021662;28;20201;-59
2023/01/08 01:29:41;;;;;;;10.00;7.80;;;10.20;57.90;;;;;;5022905;28;20230;-59
2023/01/08 01:32:07;;;;;;;8.33;7.00;;;10.30;58.00;;;;;;5018889;28;20190;-59
2023/01/08 01:34:33;;;;;;;8.60;7.70;;;10.40;57.90;;;;;;5034278;28;20189;-59
2023/01/08 01:37:00;;;;;;;9.20;7.50;;;10.50;57.60;;;;;;5031938;28;20490;-59
2023/01/08 01:39:26;;;;;;;8.77;7.77;;;10.70;57.20;;;;;;5024324;28;20444;-59
2023/01/08 01:41:52;;;;;;;8.03;7.07;;;10.80;56.90;;;;;;5023608;28;20194;-58
2023/01/08 01:44:43;;;;;;;8.90;7.40;;;10.80;56.80;;;;;;5030340;28;20668;-59
2023/01/08 01:47:26;;;;;;;9.67;7.30;;;10.70;56.90;;;;;;5024267;28;20554;-59
2023/01/08 01:50:06;;;;;;;10.53;7.67;;;10.40;57.20;;;;;;5026140;28;21021;-58
2023/01/08 01:52:35;;;;;;;8.23;7.30;;;10.30;57.80;;;;;;5023500;28;20447;-59
2023/01/08 01:55:03;;;;;;;10.67;7.30;;;10.40;57.70;;;;;;5026865;28;20436;-59
2023/01/08 01:57:31;;;;;;;10.13;7.63;;;10.30;58.00;;;;;;5022586;28;20443;-59
2023/01/08 01:59:57;;;;;;;9.60;7.97;;;10.10;57.50;;;;;;5022532;28;20433;-59
2023/01/08 02:02:23;;;;;;;8.70;7.00;;;10.00;58.00;;;;;;5028379;28;20842;-58
2023/01/08 02:04:49;;;;;;;8.60;7.70;;;10.00;58.20;;;;;;5027835;28;20614;-58
2023/01/08 02:07:28;;;;;;;8.67;7.60;;;10.10;57.90;;;;;;5022908;28;20633;-59
2023/01/08 02:10:09;;;;;;;7.37;6.50;;;10.00;58.30;;;;;;5017057;28;20586;-58
2023/01/08 02:12:52;;;;;;;7.20;6.50;;;10.10;58.40;;;;;;5018917;28;20440;-59
2023/01/08 02:15:46;;;;;;;7.00;6.30;;;10.10;58.30;;;;;;5017754;28;20436;-58
2023/01/08 02:18:31;;;;;;;8.00;6.10;;;10.20;58.10;;;;;;5023905;28;20448;-59
2023/01/08 02:21:09;;;;;;;8.80;6.80;;;10.00;58.30;;;;;;5022870;28;20439;-59
2023/01/08 02:24:11;;;;;;;8.27;6.60;;;10.00;58.60;;;;;;5026597;28;20447;-59
2023/01/08 02:26:37;;;;;;;6.83;6.10;;;9.90;59.40;;;;;;5024298;28;20521;-60
2023/01/08 02:29:10;;;;;;;7.47;5.73;;;9.70;60.30;;;;;;5023990;28;20809;-59
2023/01/08 02:31:40;;;;;;;7.23;6.53;;;9.80;60.40;;;;;;5021492;28;20452;-59
2023/01/08 02:34:05;;;;;;;7.60;6.40;;;9.90;60.00;;;;;;5021869;28;20511;-59
2023/01/08 02:36:40;;;;;;;6.70;6.10;;;9.90;60.10;;;;;;5027795;28;20472;-59
2023/01/08 02:39:39;;;;;;;10.13;6.30;;;10.00;59.20;;;;;;5025814;28;20480;-59
2023/01/08 02:42:05;;;;;;;7.57;6.07;;;9.90;60.30;;;;;;5026987;28;20468;-59
2023/01/08 02:44:52;;;;;;;9.20;6.40;;;9.80;60.90;;;;;;5020722;28;20437;-58
2023/01/08 02:47:50;;;;;;;6.47;5.70;;;10.00;59.70;;;;;;5018476;28;20510;-59
2023/01/08 02:50:39;;;;;;;8.07;5.70;;;9.80;60.70;;;;;;4995840;28;20475;-59
2023/01/08 02:53:22;;;;;;;7.30;5.73;;;9.80;61.20;;;;;;5011527;28;20444;-59
2023/01/08 02:56:15;;;;;;;5.77;4.90;;;9.80;61.70;;;;;;5029100;28;20459;-59
2023/01/08 02:58:42;;;;;;;7.27;6.30;;;10.00;60.30;;;;;;5026236;28;20801;-59
2023/01/08 03:01:10;;;;;;;6.73;5.70;;;10.00;60.30;;;;;;5030172;28;20464;-59
2023/01/08 03:03:38;;;;;;;6.80;6.20;;;9.90;61.30;;;;;;5029898;28;20498;-59
2023/01/08 03:06:09;;;;;;;6.20;4.93;;;10.00;61.00;;;;;;5026629;28;20452;-59
2023/01/08 03:08:38;;;;;;;6.17;5.47;;;10.20;60.00;;;;;;5021668;28;20969;-59
2023/01/08 03:11:07;;;;;;;8.73;4.90;;;10.40;59.60;;;;;;5027906;28;20491;-59
2023/01/08 03:13:39;;;;;;;6.50;5.90;;;10.40;59.30;;;;;;5019805;28;20436;-59
2023/01/08 03:16:10;;;;;;;5.50;5.00;;;10.60;58.90;;;;;;5029728;28;20432;-59
2023/01/08 03:18:44;;;;;;;6.13;5.63;;;10.70;58.30;;;;;;5025361;28;20523;-59
2023/01/08 03:21:11;;;;;;;6.33;5.33;;;10.50;58.10;;;;;;5027511;28;20440;-59
2023/01/08 03:23:39;;;;;;;6.00;5.40;;;10.50;58.50;;;;;;5019970;28;20527;-58
2023/01/08 03:26:06;;;;;;;6.50;4.87;;;10.70;58.20;;;;;;5028749;28;20416;-59
2023/01/08 03:28:40;;;;;;;5.87;5.17;;;10.80;58.00;;;;;;5029654;28;20486;-58
2023/01/08 03:31:07;;;;;;;6.10;5.60;;;10.70;57.70;;;;;;5028079;28;20488;-59
2023/01/08 03:33:34;;;;;;;5.77;5.13;;;10.80;57.80;;;;;;5026620;28;20595;-59
2023/01/08 03:36:03;;;;;;;5.63;4.77;;;10.90;57.70;;;;;;5028028;28;20436;-59
2023/01/08 03:38:38;;;;;;;7.10;5.83;;;10.90;57.40;;;;;;5021273;28;20434;-59
2023/01/08 03:41:12;;;;;;;6.10;5.40;;;10.80;57.40;;;;;;5015252;28;20519;-59
2023/01/08 03:43:38;;;;;;;7.83;5.60;;;10.70;57.60;;;;;;5024119;28;20430;-59
2023/01/08 03:46:10;;;;;;;6.00;5.07;;;10.70;57.90;;;;;;5029086;28;20437;-58
2023/01/08 03:48:37;;;;;;;6.40;5.13;;;10.80;57.70;;;;;;5027725;28;20645;-59
2023/01/08 03:51:06;;;;;;;5.80;5.07;;;10.80;57.90;;;;;;5024338;28;20479;-58
2023/01/08 03:53:32;;;;;;;5.90;5.03;;;10.90;57.70;;;;;;5030964;28;20436;-59
2023/01/08 03:55:57;;;;;;;5.73;4.80;;;10.90;57.70;;;;;;5031881;28;20435;-58
2023/01/08 03:58:23;;;;;;;8.70;5.07;;;11.00;57.60;;;;;;5032418;28;20223;-58
2023/01/08 04:00:49;;;;;;;5.53;5.00;;;11.00;57.50;;;;;;5033278;28;20263;-59
2023/01/08 04:03:14;;;;;;;6.90;5.70;;;10.80;57.60;;;;;;5028653;28;20225;-58
2023/01/08 04:05:40;;;;;;;5.70;5.10;;;10.80;58.00;;;;;;5032806;28;20211;-59
2023/01/08 04:08:05;;;;;;;7.00;5.70;;;10.80;58.00;;;;;;5023152;28;20190;-59
2023/01/08 04:10:31;;;;;;;6.33;4.73;;;10.90;57.90;;;;;;5028368;28;20297;-59
2023/01/08 04:12:56;;;;;;;6.60;5.40;;;10.90;57.70;;;;;;5032055;28;20197;-58
2023/01/08 04:15:22;;;;;;;6.20;5.60;;;10.90;57.60;;;;;;5029588;28;20185;-58
2023/01/08 04:17:47;;;;;;;7.20;5.63;;;10.90;57.70;;;;;;5031311;28;20632;-59
2023/01/08 04:20:13;;;;;;;5.50;4.80;;;10.80;57.80;;;;;;5023051;28;20193;-58
2023/01/08 04:22:39;;;;;;;5.50;5.00;;;10.80;57.90;;;;;;5032764;28;20683;-59
2023/01/08 04:25:04;;;;;;;5.87;5.20;;;10.80;57.90;;;;;;5026537;28;20201;-58
2023/01/08 04:27:30;;;;;;;5.80;5.20;;;10.80;58.00;;;;;;5030309;28;20207;-59
2023/01/08 04:29:55;;;;;;;5.43;4.90;;;10.60;58.00;;;;;;5030446;28;20644;-59
2023/01/08 04:32:21;;;;;;;5.00;4.50;;;10.60;58.50;;;;;;5032213;28;20190;-58
2023/01/08 04:34:47;;;;;;;5.00;4.43;;;10.60;58.40;;;;;;5032658;28;20221;-59
2023/01/08 04:37:12;;;;;;;5.97;5.33;;;10.60;58.30;;;;;;5032479;28;20185;-58
2023/01/08 04:39:38;;;;;;;5.00;4.50;;;10.70;58.20;;;;;;5033745;28;20555;-59
2023/01/08 04:42:03;;;;;;;5.87;5.30;;;10.80;57.80;;;;;;5020650;28;20190;-58
2023/01/08 04:44:30;;;;;;;7.10;5.50;;;10.80;57.70;;;;;;5025984;28;20185;-58
2023/01/08 04:46:55;;;;;;;5.20;4.70;;;10.90;57.40;;;;;;5032341;28;20190;-59
2023/01/08 04:49:21;;;;;;;5.87;4.93;;;10.80;57.40;;;;;;5030127;28;20448;-59
2023/01/08 04:51:46;;;;;;;5.80;5.20;;;10.80;57.70;;;;;;5026148;28;20185;-59
2023/01/08 04:54:12;;;;;;;6.00;5.30;;;10.70;57.70;;;;;;5030064;28;20277;-58
2023/01/08 04:56:38;;;;;;;5.07;4.57;;;10.60;58.60;;;;;;5028944;28;20216;-59
2023/01/08 04:59:03;;;;;;;5.70;4.50;;;10.40;58.40;;;;;;5028929;28;20185;-59
2023/01/08 05:01:29;;;;;;;5.47;4.50;;;10.50;58.50;;;;;;5024907;28;20715;-59
2023/01/08 05:04:00;;;;;;;6.13;4.97;;;10.40;59.00;;;;;;5023758;28;20241;-58
2023/01/08 05:06:27;;;;;;;5.83;5.33;;;10.20;59.00;;;;;;5022877;28;20189;-58
2023/01/08 05:08:53;;;;;;;5.43;4.90;;;10.00;59.50;;;;;;5029391;28;20432;-58
2023/01/08 05:11:19;;;;;;;4.63;4.17;;;9.60;60.90;;;;;;5018621;28;20963;-58
2023/01/08 05:13:47;;;;;;;5.73;4.83;;;9.50;62.50;;;;;;5024747;28;20193;-58
2023/01/08 05:16:13;;;;;;;5.13;4.63;;;9.70;62.80;;;;;;5026242;28;22096;-59
2023/01/08 05:18:39;;;;;;;5.40;4.90;;;10.00;60.50;;;;;;5023691;28;20510;-59
2023/01/08 05:21:04;;;;;;;5.17;4.63;;;10.00;60.30;;;;;;5023839;28;20201;-58
2023/01/08 05:23:32;;;;;;;4.80;4.40;;;10.00;60.30;;;;;;5027607;28;20194;-58
2023/01/08 05:25:58;;;;;;;4.57;4.17;;;10.10;59.90;;;;;;5026584;28;20182;-59
2023/01/08 05:28:25;;;;;;;4.83;4.43;;;10.30;60.30;;;;;;5026277;28;20432;-58
2023/01/08 05:30:50;;;;;;;5.50;3.40;;;10.20;60.80;;;;;;5027450;28;20479;-59
2023/01/08 05:33:16;;;;;;;2.43;2.13;;;10.30;62.50;;;;;;5024861;28;20431;-59
2023/01/08 05:35:41;;;;;;;2.20;2.10;;;10.40;63.20;;;;;;5022180;28;20196;-59
2023/01/08 05:38:07;;;;;;;2.70;2.33;;;10.60;63.30;;;;;;5021000;28;20197;-58
2023/01/08 05:40:32;;;;;;;2.00;1.80;;;10.80;63.00;;;;;;5027232;28;20189;-59
2023/01/08 05:42:59;;;;;;;2.30;2.10;;;10.80;62.40;;;;;;5033694;28;20319;-59
2023/01/08 05:45:25;;;;;;;1.90;1.80;;;11.10;62.40;;;;;;5027756;28;20280;-59
2023/01/08 05:47:51;;;;;;;2.13;1.97;;;11.20;61.80;;;;;;5022187;28;20586;-58
2023/01/08 05:50:16;;;;;;;3.20;2.00;;;11.50;61.80;;;;;;5022831;28;20225;-59
2023/01/08 05:52:42;;;;;;;2.30;1.63;;;11.70;61.50;;;;;;5023308;28;20205;-59
2023/01/08 05:55:08;;;;;;;2.40;1.87;;;11.70;60.70;;;;;;5026514;28;20312;-59
2023/01/08 05:57:33;;;;;;;1.93;1.70;;;12.00;60.30;;;;;;5025580;28;20601;-59
2023/01/08 05:59:59;;;;;;;2.00;1.80;;;12.10;59.90;;;;;;5018756;28;20444;-59
2023/01/08 06:02:24;;;;;;;1.60;1.50;;;12.10;59.90;;;;;;5027734;28;20193;-59
2023/01/08 06:04:50;;;;;;;1.80;1.70;;;11.90;60.10;;;;;;5017537;28;20240;-59
2023/01/08 06:07:16;;;;;;;1.97;1.80;;;11.90;61.20;;;;;;5025175;28;20189;-58
2023/01/08 06:09:41;;;;;;;1.93;1.40;;;12.10;61.30;;;;;;5023198;28;20213;-59
2023/01/08 06:12:07;;;;;;;1.40;1.30;;;12.10;61.20;;;;;;5026434;28;20816;-59
2023/01/08 06:14:32;;;;;;;2.60;1.60;;;11.90;61.20;;;;;;5027419;28;20201;-58
2023/01/08 06:16:58;;;;;;;1.93;1.77;;;11.90;61.60;;;;;;5024000;28;20284;-59
2023/01/08 06:19:23;;;;;;;1.30;1.20;;;12.10;62.30;;;;;;5028187;28;20521;-59
2023/01/08 06:21:49;;;;;;;3.83;1.33;;;12.10;62.50;;;;;;5022245;28;20268;-60
2023/01/08 06:24:15;;;;;;;1.70;1.50;;;12.20;62.70;;;;;;5015824;28;20277;-59
2023/01/08 06:26:40;;;;;;;1.93;1.10;;;12.30;63.50;;;;;;5019859;28;20198;-59
2023/01/08 06:29:06;;;;;;;1.30;1.20;;;12.20;63.80;;;;;;5021940;28;20230;-59
2023/01/08 06:31:32;;;;;;;1.37;1.27;;;12.30;63.80;;;;;;5025323;28;20284;-59
2023/01/08 06:33:57;;;;;;;1.30;1.20;;;12.30;64.40;;;;;;5017836;28;20189;-60
2023/01/08 06:36:23;;;;;;;1.60;1.30;;;12.10;65.70;;;;;;5021409;28;20196;-60
2023/01/08 06:38:48;;;;;;;1.20;1.10;;;12.10;65.00;;;;;;5023010;28;20221;-60
2023/01/08 06:41:14;;;;;;;1.30;1.03;;;12.20;64.60;;;;;;5027080;28;20637;-60
2023/01/08 06:43:39;;;;;;;1.30;1.20;;;12.30;64.30;;;;;;5023103;28;20557;-60
2023/01/08 06:46:07;;;;;;;1.97;1.30;;;12.40;64.10;;;;;;5020656;28;20196;-60
2023/01/08 06:48:33;;;;;;;2.20;1.17;;;12.30;63.40;;;;;;5022991;28;20268;-60
2023/01/08 06:50:59;;;;;;;1.20;1.10;;;12.40;63.30;;;;;;5022542;28;20585;-60
2023/01/08 06:53:25;;;;;;;1.33;1.23;;;12.50;63.40;;;;;;5028367;28;20195;-60
2023/01/08 06:55:55;;;;;;;5.57;3.17;;;12.50;63.80;;;;;;5017127;28;20439;-60
2023/01/08 06:58:22;;;;;;;1.40;1.30;;;12.60;63.30;;;;;;5019155;28;20204;-60
2023/01/08 07:00:47;;;;;;;1.57;1.23;;;12.40;63.50;;;;;;5019586;28;20534;-60
2023/01/08 07:03:13;;;;;;;1.20;1.10;;;12.30;64.00;;;;;;5017557;28;20507;-61
2023/01/08 07:05:39;;;;;;;1.10;1.00;;;12.00;64.90;;;;;;5025126;28;20217;-60
2023/01/08 07:08:04;;;;;;;1.30;1.17;;;12.20;65.60;;;;;;5023548;28;20255;-60
2023/01/08 07:10:30;;;;;;;2.10;1.50;;;12.40;65.70;;;;;;5024205;28;20228;-60
2023/01/08 07:12:56;;;;;;;2.17;1.80;;;12.50;64.60;;;;;;5024361;28;20204;-60
2023/01/08 07:15:22;;;;;;;1.57;1.47;;;12.50;64.40;;;;;;5023493;28;20252;-60
2023/01/08 07:17:48;;;;;;;1.50;1.40;;;12.80;64.20;;;;;;5015784;28;20479;-60
2023/01/08 07:20:13;;;;;;;1.83;1.50;;;12.70;63.50;;;;;;5016228;28;20644;-61
2023/01/08 07:22:39;;;;;;;2.30;1.67;;;13.00;63.80;;;;;;5026446;28;20181;-60
2023/01/08 07:25:06;;;;;;;2.00;1.60;;;12.90;63.30;;;;;;5024427;28;20380;-60
2023/01/08 07:27:31;;;;;;;2.00;1.90;;;12.80;63.30;;;;;;5020922;28;20294;-60
2023/01/08 07:29:57;;;;;;;2.93;1.80;;;12.80;63.40;;;;;;5017971;28;20558;-60
2023/01/08 07:32:23;;;;;;;2.33;2.13;;;12.80;63.50;;;;;;5029895;28;20201;-60
2023/01/08 07:34:49;;;;;;;1.87;1.77;;;12.70;63.70;;;;;;5028539;28;20435;-61
2023/01/08 07:37:14;;;;;;;2.07;1.93;;;12.80;63.70;;;;;;5022358;28;20190;-61
2023/01/08 07:39:40;;;;;;;1.70;1.60;;;12.80;63.40;;;;;;5025320;28;20192;-61
2023/01/08 07:42:05;;;;;;;2.80;2.50;;;12.70;63.40;;;;;;5024436;28;20267;-61
2023/01/08 07:44:31;;;;;;;2.10;1.90;;;12.60;63.60;;;;;;5016831;28;20240;-61
2023/01/08 07:46:56;;;;;;;2.27;1.70;;;12.60;64.10;;;;;;5026803;28;20543;-61
2023/01/08 07:49:22;;;;;;;1.90;1.40;;;12.70;64.60;;;;;;5029657;28;20247;-61
2023/01/08 07:51:50;;;;;;;3.27;1.80;;;12.70;64.50;;;;;;5031772;28;20200;-61
2023/01/08 07:54:16;;;;;;;3.70;2.10;;;12.60;65.30;;;;;;5024909;28;21643;-61
2023/01/08 07:56:42;;;;;;;1.63;1.50;;;12.70;65.80;;;;;;5028403;28;20439;-61
2023/01/08 07:59:07;;;;;;;5.70;1.70;;;12.60;66.20;;;;;;5028088;28;20344;-61
2023/01/08 08:01:33;;;;;;;2.07;1.83;;;12.50;65.90;;;;;;5027060;28;20201;-61
2023/01/08 08:03:58;;;;;;;1.73;1.63;;;12.40;65.80;;;;;;5030460;28;20225;-61
2023/01/08 08:06:24;;;;;;;1.70;1.60;;;12.50;66.30;;;;;;5032014;28;20252;-61
2023/01/08 08:08:49;;;;;;;1.60;1.50;;;12.50;66.60;;;;;;5026960;28;20281;-61
2023/01/08 08:11:15;;;;;;;1.87;1.70;;;12.30;66.70;;;;;;5025239;28;20229;-61
2023/01/08 08:13:43;;;;;;;1.50;1.40;;;12.40;67.00;;;;;;5021416;28;20640;-61
2023/01/08 08:16:10;;;;;;;1.60;1.50;;;12.50;67.00;;;;;;5026328;28;20193;-60
2023/01/08 08:18:35;;;;;;;1.40;1.30;;;12.40;66.10;;;;;;5021616;28;20447;-60
2023/01/08 08:21:02;;;;;;;1.80;1.63;;;12.40;66.60;;;;;;5034055;28;20420;-61
2023/01/08 08:23:28;;;;;;;3.07;1.83;;;12.30;66.60;;;;;;5030994;28;20522;-60
2023/01/08 08:25:53;;;;;;;2.33;1.43;;;12.40;67.90;;;;;;5026940;28;20448;-60
2023/01/08 08:28:20;;;;;;;1.60;1.43;;;12.10;67.20;;;;;;5029999;28;20189;-60
2023/01/08 08:30:45;;;;;;;1.40;1.30;;;12.30;68.20;;;;;;5033852;28;20279;-60
2023/01/08 08:33:11;;;;;;;1.57;1.47;;;12.30;67.80;;;;;;5027570;28;20435;-60
2023/01/08 08:35:37;;;;;;;1.87;1.20;;;12.50;67.60;;;;;;5023984;28;20206;-60
2023/01/08 08:38:03;;;;;;;1.83;1.50;;;12.40;66.80;;;;;;5029427;28;20501;-60
2023/01/08 08:40:29;;;;;;;1.57;1.47;;;12.50;67.10;;;;;;5030005;28;20219;-60
2023/01/08 08:42:59;;;;;;;1.50;1.40;;;12.60;66.80;;;;;;5029203;28;20466;-60
2023/01/08 08:45:26;;;;;;;3.20;2.60;;;12.60;66.80;;;;;;5029436;28;20527;-60
2023/01/08 08:47:51;;;;;;;1.27;1.07;;;12.90;66.50;;;;;;5032604;28;20432;-60
2023/01/08 08:50:17;;;;;;;1.87;1.77;;;13.00;66.00;;;;;;5028705;28;20467;-60
2023/01/08 08:52:44;;;;;;;1.67;1.50;;;13.20;65.40;;;;;;5020692;28;20193;-60
2023/01/08 08:55:14;;;;;;;1.87;1.30;;;13.30;65.20;;;;;;5029964;28;20444;-60
2023/01/08 08:57:40;;;;;;;1.83;1.50;;;13.20;64.70;;;;;;5027701;28;20439;-60
2023/01/08 09:00:06;;;;;;;2.13;1.93;;;13.20;64.90;;;;;;5029183;28;20450;-60
2023/01/08 09:02:32;;;;;;;1.97;1.77;;;13.10;65.50;;;;;;5019587;28;20193;-60
2023/01/08 09:04:57;;;;;;;3.50;1.87;;;13.20;65.80;;;;;;5027679;28;20452;-60
2023/01/08 09:07:23;;;;;;;2.30;1.73;;;13.10;65.90;;;;;;5030562;28;20637;-60
2023/01/08 09:09:49;;;;;;;4.00;2.00;;;13.10;65.60;;;;;;5026171;28;20212;-60
2023/01/08 09:12:14;;;;;;;1.77;1.63;;;13.10;65.40;;;;;;5028809;28;20264;-60
2023/01/08 09:14:40;;;;;;;2.10;1.30;;;13.10;65.60;;;;;;5026716;28;20189;-60
2023/01/08 09:17:06;;;;;;;4.47;1.63;;;13.00;65.40;;;;;;5029009;28;20255;-60
2023/01/08 09:19:31;;;;;;;2.30;1.50;;;13.00;65.60;;;;;;5032087;28;20185;-60
2023/01/08 09:21:57;;;;;;;1.80;1.47;;;13.00;65.60;;;;;;5025956;28;20200;-60
2023/01/08 09:24:22;;;;;;;1.70;1.60;;;12.80;65.60;;;;;;5020765;28;20200;-60
2023/01/08 09:26:48;;;;;;;1.60;1.50;;;12.90;66.10;;;;;;5026204;28;20193;-60
2023/01/08 09:29:13;;;;;;;1.67;1.57;;;13.00;65.90;;;;;;5021512;28;20192;-60
2023/01/08 09:31:39;;;;;;;1.57;1.47;;;13.10;65.60;;;;;;5026878;28;20235;-60
2023/01/08 09:34:05;;;;;;;2.10;1.30;;;13.00;65.30;;;;;;5026595;28;20942;-60
2023/01/08 09:36:30;;;;;;;2.10;1.80;;;13.10;65.20;;;;;;5024706;28;20197;-60
2023/01/08 09:38:56;;;;;;;1.67;1.57;;;13.20;64.90;;;;;;5027544;28;20189;-60
2023/01/08 09:41:32;;;;;;;1.53;1.43;;;13.10;64.70;;;;;;5030020;28;20806;-60
2023/01/08 09:43:59;;;;;;;1.67;1.57;;;13.20;64.50;;;;;;5014477;28;20194;-60
2023/01/08 09:46:26;;;;;;;1.30;1.20;;;13.10;64.50;;;;;;5022590;28;20488;-60
2023/01/08 09:48:58;;;;;;;1.97;1.70;;;13.10;64.90;;;;;;5027615;28;20514;-60
2023/01/08 09:51:30;;;;;;;1.60;1.50;;;13.30;65.10;;;;;;5025251;28;20490;-60
2023/01/08 09:53:56;;;;;;;2.20;1.57;;;13.40;64.50;;;;;;5024801;28;20788;-60
2023/01/08 09:56:22;;;;;;;2.80;1.50;;;13.40;64.20;;;;;;5027726;28;20442;-60
2023/01/08 09:58:50;;;;;;;5.43;2.00;;;13.30;64.20;;;;;;5026115;28;20231;-60
2023/01/08 10:01:20;;;;;;;1.73;1.30;;;13.40;64.00;;;;;;5023443;28;20514;-60
2023/01/08 10:03:54;;;;;;;1.80;1.53;;;13.40;63.70;;;;;;5025854;28;20471;-60
2023/01/08 10:06:23;;;;;;;2.10;1.80;;;13.40;63.70;;;;;;5026094;28;20797;-60
2023/01/08 10:08:50;;;;;;;1.63;1.53;;;13.50;63.70;;;;;;5029293;28;20471;-61
2023/01/08 10:11:16;;;;;;;2.13;1.77;;;13.60;63.30;;;;;;5022734;28;21052;-60
2023/01/08 10:13:51;;;;;;;1.80;1.53;;;13.60;62.90;;;;;;5025967;28;20430;-60
2023/01/08 10:16:34;;;;;;;2.40;2.20;;;13.60;63.30;;;;;;5027870;28;20963;-61
2023/01/08 10:19:02;;;;;;;1.73;1.63;;;13.70;63.00;;;;;;5027561;28;20439;-60
2023/01/08 10:21:39;;;;;;;2.10;1.93;;;13.70;62.90;;;;;;5023546;28;20566;-61
2023/01/08 10:24:05;;;;;;;2.03;1.40;;;13.70;63.00;;;;;;5021065;28;20441;-61
2023/01/08 10:26:36;;;;;;;2.13;1.90;;;13.60;63.10;;;;;;5018243;28;20436;-60
2023/01/08 10:29:14;;;;;;;1.60;1.50;;;13.50;63.90;;;;;;5021925;28;20452;-61
2023/01/08 10:31:52;;;;;;;4.50;2.00;;;13.60;63.80;;;;;;5023137;28;20535;-62
2023/01/08 10:34:26;;;;;;;1.80;1.70;;;13.50;63.40;;;;;;5026257;28;20443;-62
2023/01/08 10:36:52;;;;;;;2.13;1.40;;;13.60;63.30;;;;;;5025299;28;20527;-61
2023/01/08 10:39:27;;;;;;;2.47;1.87;;;13.70;62.70;;;;;;5019122;28;20429;-61
2023/01/08 10:41:56;;;;;;;3.53;1.97;;;13.60;62.60;;;;;;5022466;28;20832;-61
2023/01/08 10:44:24;;;;;;;5.03;2.73;;;13.60;62.50;;;;;;5022917;28;20432;-61
2023/01/08 10:46:54;;;;;;;3.10;2.80;;;13.60;62.20;;;;;;5023010;28;20986;-61
2023/01/08 10:49:38;;;;;;;1.70;1.60;;;13.70;62.20;;;;;;5025590;28;20973;-62
2023/01/08 10:52:04;;;;;;;1.90;1.77;;;13.80;62.10;;;;;;5029347;28;20462;-61
2023/01/08 10:54:39;;;;;;;2.23;1.50;;;13.80;61.70;;;;;;5028169;28;20459;-61
2023/01/08 10:57:26;;;;;;;1.83;1.53;;;13.80;61.80;;;;;;5027997;28;20431;-61
2023/01/08 10:59:52;;;;;;;1.90;1.80;;;13.70;61.90;;;;;;5028911;28;20454;-61
2023/01/08 11:02:26;;;;;;;1.77;1.67;;;13.50;62.00;;;;;;5025781;28;20954;-61
2023/01/08 11:04:52;;;;;;;1.77;1.67;;;13.60;62.20;;;;;;5015326;28;20463;-61
2023/01/08 11:07:20;;;;;;;1.63;1.53;;;13.80;61.90;;;;;;5031419;28;20436;-61
2023/01/08 11:09:48;;;;;;;2.13;1.93;;;13.80;61.40;;;;;;5031439;28;20204;-61
2023/01/08 11:12:38;;;;;;;2.90;2.40;;;13.80;61.20;;;;;;5031730;28;20424;-61
2023/01/08 11:15:19;;;;;;;2.60;2.40;;;14.00;61.30;;;;;;5028516;28;20537;-61
2023/01/08 11:17:45;;;;;;;1.30;1.20;;;14.10;60.60;;;;;;5032785;28;20466;-61
2023/01/08 11:20:29;;;;;;;1.60;1.50;;;14.00;60.10;;;;;;5033432;28;20443;-61
2023/01/08 11:23:17;;;;;;;2.80;1.30;;;14.00;60.40;;;;;;5029749;28;20431;-61
2023/01/08 11:25:55;;;;;;;1.50;1.00;;;13.90;60.40;;;;;;5029415;28;20452;-61
2023/01/08 11:28:42;;;;;;;1.00;1.00;;;13.80;60.30;;;;;;5030590;28;20475;-61
2023/01/08 11:31:17;;;;;;;1.17;1.00;;;13.70;60.70;;;;;;5029980;28;20490;-61
2023/01/08 11:33:46;;;;;;;1.53;1.43;;;13.70;60.50;;;;;;5032377;28;20458;-61
2023/01/08 11:36:26;;;;;;;1.27;1.17;;;13.80;60.60;;;;;;5028761;28;20483;-61
2023/01/08 11:38:52;;;;;;;1.20;1.00;;;13.90;60.60;;;;;;5033721;28;20450;-61
2023/01/08 11:41:50;;;;;;;1.00;1.00;;;13.90;60.30;;;;;;5033173;28;20518;-60
2023/01/08 11:44:32;;;;;;;1.00;0.90;;;13.60;60.20;;;;;;5025484;28;20202;-61
2023/01/08 11:47:20;;;;;;;1.67;1.10;;;13.70;60.60;;;;;;5023455;28;20966;-61
2023/01/08 11:49:58;;;;;;;0.90;0.90;;;13.80;60.50;;;;;;5026321;28;20471;-60
2023/01/08 11:52:40;;;;;;;1.63;1.37;;;13.90;60.10;;;;;;5027716;28;20783;-60
2023/01/08 11:55:27;;;;;;;1.40;1.30;;;13.90;60.40;;;;;;5028807;28;20460;-60
2023/01/08 11:58:04;;;;;;;1.23;1.13;;;13.60;59.70;;;;;;5033658;28;20431;-60
2023/01/08 12:00:52;;;;;;;0.90;0.90;;;13.70;60.70;;;;;;5030608;28;20972;-60
2023/01/08 12:03:40;;;;;;;1.10;1.00;;;13.80;60.30;;;;;;5022273;28;20823;-60
2023/01/08 12:06:34;;;;;;;0.87;0.83;;;14.00;59.60;;;;;;5025878;28;20839;-60
2023/01/08 12:09:16;;;;;;;1.20;0.90;;;14.00;59.10;;;;;;5030316;28;20491;-60
2023/01/08 12:12:06;;;;;;;1.37;1.10;;;14.30;59.10;;;;;;5026787;28;20498;-60
2023/01/08 12:14:45;;;;;;;1.00;1.00;;;14.40;58.50;;;;;;5028934;28;20471;-60
2023/01/08 12:17:34;;;;;;;2.00;1.20;;;14.20;58.30;;;;;;5022405;28;20448;-60
2023/01/08 12:20:06;;;;;;;1.23;1.13;;;14.20;58.90;;;;;;5028005;28;20446;-61
2023/01/08 12:22:50;;;;;;;1.17;1.07;;;14.30;58.70;;;;;;5030000;28;20458;-60
2023/01/08 12:25:23;;;;;;;1.30;1.20;;;14.30;58.20;;;;;;5018756;28;20436;-60
2023/01/08 12:28:19;;;;;;;1.60;1.50;;;14.30;58.10;;;;;;5028492;28;20498;-60
2023/01/08 12:30:50;;;;;;;1.10;1.00;;;14.40;58.10;;;;;;5021014;28;20529;-59
2023/01/08 12:33:20;;;;;;;0.80;0.80;;;14.30;58.20;;;;;;5025031;28;20435;-60
2023/01/08 12:35:49;;;;;;;0.80;0.80;;;14.30;58.20;;;;;;5027816;28;20448;-61
2023/01/08 12:38:20;;;;;;;1.20;1.00;;;13.90;58.20;;;;;;5030111;28;20478;-60
2023/01/08 12:40:54;;;;;;;1.00;0.90;;;14.10;58.70;;;;;;5032362;28;20440;-60
2023/01/08 12:43:30;;;;;;;1.07;1.00;;;14.00;58.50;;;;;;5026768;28;20443;-60
2023/01/08 12:46:01;;;;;;;1.57;0.90;;;14.10;58.40;;;;;;5031421;28;20448;-60
2023/01/08 12:48:30;;;;;;;1.37;1.27;;;14.00;58.30;;;;;;5027953;28;20428;-60
2023/01/08 12:51:19;;;;;;;1.13;1.00;;;14.10;58.80;;;;;;5025367;28;20468;-60
2023/01/08 12:54:10;;;;;;;1.40;1.30;;;14.10;58.00;;;;;;5024598;28;20808;-60
2023/01/08 12:56:41;;;;;;;2.10;1.90;;;14.10;58.20;;;;;;5026575;28;20526;-60
2023/01/08 12:59:06;;;;;;;1.17;1.13;;;14.20;58.10;;;;;;5026992;28;20452;-60
2023/01/08 13:01:40;;;;;;;1.07;1.00;;;14.50;58.00;;;;;;5031623;28;20451;-59